Time,TemperatureF,DewpointF,PressureIn,WindDirection,WindDirectionDegrees,WindSpeedMPH,WindSpeedGustMPH,Humidity,HourlyPrecipIn,Conditions,Clouds,dailyrainin,SoftwareType,DateUTC
2013-01-01 00:08:00,18.5,14.0,32.50,SE,127,1.0,3.0,82,0.00,,,0.00,weatherlink.com 1.10,2013-01-01 07:08:00,
2013-01-01 00:23:00,18.4,14.0,32.50,ESE,102,2.0,5.0,81,0.00,,,0.00,weatherlink.com 1.10,2013-01-01 07:23:00,
2013-01-01 00:38:00,18.2,14.0,32.50,ESE,121,4.0,5.0,83,0.00,,,0.00,weatherlink.com 1.10,2013-01-01 07:38:00,
2013-01-01 00:53:00,17.6,14.0,32.50,ESE,121,3.0,7.0,84,0.00,,,0.00,weatherlink.com 1.10,2013-01-01 07:53:00,
2013-01-01 01:08:00,17.3,13.0,32.50,ESE,111,3.0,7.0,84,0.00,,,0.00,weatherlink.com 1.10,2013-01-01 08:08:00,
2013-01-01 01:23:00,17.3,13.0,32.50,ESE,113,3.0,9.0,83,0.00,,,0.00,weatherlink.com 1.10,2013-01-01 08:23:00,
2013-01-01 01:38:00,17.3,13.0,32.50,ESE,113,4.0,8.0,84,0.00,,,0.00,weatherlink.com 1.10,2013-01-01 08:38:00,
2013-01-01 01:53:00,17.1,13.0,32.50,ESE,108,4.0,7.0,85,0.00,,,0.00,weatherlink.com 1.10,2013-01-01 08:53:00,
2013-01-01 02:08:00,16.7,13.0,32.50,East,94,3.0,7.0,85,0.00,,,0.00,weatherlink.com 1.10,2013-01-01 09:08:00,
2013-01-01 02:23:00,16.7,13.0,32.50,East,98,3.0,5.0,85,0.00,,,0.00,weatherlink.com 1.10,2013-01-01 09:23:00,
2013-01-01 02:38:00,16.7,13.0,32.50,East,87,2.0,5.0,85,0.00,,,0.00,weatherlink.com 1.10,2013-01-01 09:38:00,
2013-01-01 02:53:00,17.0,13.0,32.50,NNE,13,3.0,4.0,85,0.00,,,0.00,weatherlink.com 1.10,2013-01-01 09:53:00,
2013-01-01 03:08:00,17.6,13.0,32.50,NE,52,0.0,2.0,83,0.00,,,0.00,weatherlink.com 1.10,2013-01-01 10:08:00,
2013-01-01 03:23:00,17.8,14.0,32.50,NE,52,1.0,2.0,83,0.00,,,0.00,weatherlink.com 1.10,2013-01-01 10:23:00,
2013-01-01 03:38:00,17.2,13.0,32.50,NE,44,0.0,1.0,84,0.00,,,0.00,weatherlink.com 1.10,2013-01-01 10:38:00,
2013-01-01 03:53:00,17.1,13.0,32.50,ESE,115,2.0,3.0,84,0.00,,,0.00,weatherlink.com 1.10,2013-01-01 10:53:00,
2013-01-01 04:08:00,16.7,12.0,32.50,ENE,69,1.0,5.0,83,0.00,,,0.00,weatherlink.com 1.10,2013-01-01 11:08:00,
2013-01-01 04:23:00,16.5,13.0,32.50,ESE,112,4.0,8.0,85,0.00,,,0.00,weatherlink.com 1.10,2013-01-01 11:23:00,
2013-01-01 04:38:00,16.1,13.0,32.50,ESE,105,5.0,5.0,86,0.00,,,0.00,weatherlink.com 1.10,2013-01-01 11:38:00,
2013-01-01 04:53:00,15.7,12.0,32.50,ESE,104,1.0,5.0,86,0.00,,,0.00,weatherlink.com 1.10,2013-01-01 11:53:00,
2013-01-01 05:08:00,15.5,12.0,32.50,NNW,340,4.0,7.0,86,0.00,,,0.00,weatherlink.com 1.10,2013-01-01 12:08:00,
2013-01-01 05:23:00,15.8,13.0,32.50,NNW,341,4.0,5.0,87,0.00,,,0.00,weatherlink.com 1.10,2013-01-01 12:23:00,
2013-01-01 05:38:00,15.9,13.0,32.50,NNW,338,4.0,6.0,86,0.00,,,0.00,weatherlink.com 1.10,2013-01-01 12:38:00,
2013-01-01 05:53:00,16.3,13.0,32.50,WNW,286,2.0,7.0,85,0.00,,,0.00,weatherlink.com 1.10,2013-01-01 12:53:00,
2013-01-01 06:08:00,16.5,13.0,32.50,ENE,57,1.0,3.0,85,0.00,,,0.00,weatherlink.com 1.10,2013-01-01 13:08:00,
2013-01-01 06:23:00,16.5,13.0,32.50,ESE,115,0.0,4.0,85,0.00,,,0.00,weatherlink.com 1.10,2013-01-01 13:23:00,
2013-01-01 06:38:00,15.9,13.0,32.50,East,80,0.0,1.0,86,0.00,,,0.00,weatherlink.com 1.10,2013-01-01 13:38:00,
2013-01-01 06:53:00,15.6,12.0,32.50,North,355,3.0,8.0,86,0.00,,,0.00,weatherlink.com 1.10,2013-01-01 13:53:00,
2013-01-01 07:08:00,15.7,12.0,32.50,NNW,329,2.0,7.0,85,0.00,,,0.00,weatherlink.com 1.10,2013-01-01 14:08:00,
2013-01-01 07:39:00,15.0,12.0,32.50,NNW,346,4.0,6.0,86,0.00,,,0.00,weatherlink.com 1.10,2013-01-01 14:39:00,
2013-01-01 07:54:00,15.7,13.0,32.50,NW,319,7.0,14.0,87,0.00,,,0.00,weatherlink.com 1.10,2013-01-01 14:54:00,
2013-01-01 08:09:00,16.6,13.0,32.50,NW,305,8.0,15.0,84,0.00,,,0.00,weatherlink.com 1.10,2013-01-01 15:09:00,
2013-01-01 08:24:00,16.6,12.0,32.50,NW,326,5.0,14.0,83,0.00,,,0.00,weatherlink.com 1.10,2013-01-01 15:24:00,
2013-01-01 08:39:00,16.2,12.0,32.50,NW,309,2.0,6.0,83,0.00,,,0.00,weatherlink.com 1.10,2013-01-01 15:39:00,
2013-01-01 08:54:00,16.5,13.0,32.50,North,360,6.0,11.0,84,0.00,,,0.00,weatherlink.com 1.10,2013-01-01 15:54:00,
2013-01-01 09:09:00,17.7,13.0,32.50,NNW,327,1.0,7.0,80,0.00,,,0.00,weatherlink.com 1.10,2013-01-01 16:09:00,
2013-01-01 09:24:00,17.7,13.0,32.50,West,276,10.0,10.0,80,0.00,,,0.00,weatherlink.com 1.10,2013-01-01 16:24:00,
2013-01-01 09:39:00,17.4,12.0,32.50,WNW,292,9.0,15.0,80,0.00,,,0.00,weatherlink.com 1.10,2013-01-01 16:39:00,
2013-01-01 09:54:00,17.1,12.0,32.50,NW,316,12.0,21.0,80,0.00,,,0.00,weatherlink.com 1.10,2013-01-01 16:54:00,
2013-01-01 10:09:00,17.4,12.0,32.50,NNW,327,5.0,14.0,80,0.00,,,0.00,weatherlink.com 1.10,2013-01-01 17:09:00,
2013-01-01 10:24:00,19.1,13.0,32.50,WNW,283,9.0,12.0,76,0.00,,,0.00,weatherlink.com 1.10,2013-01-01 17:24:00,
2013-01-01 10:39:00,18.7,13.0,32.50,NW,308,3.0,10.0,77,0.00,,,0.00,weatherlink.com 1.10,2013-01-01 17:39:00,
2013-01-01 10:54:00,19.4,13.0,32.50,North,5,2.0,10.0,75,0.00,,,0.00,weatherlink.com 1.10,2013-01-01 17:54:00,
2013-01-01 11:09:00,19.3,13.0,32.50,North,355,4.0,8.0,76,0.00,,,0.00,weatherlink.com 1.10,2013-01-01 18:09:00,
2013-01-01 11:24:00,18.7,13.0,32.50,NNW,338,6.0,9.0,79,0.00,,,0.00,weatherlink.com 1.10,2013-01-01 18:24:00,
2013-01-01 11:39:00,19.3,14.0,32.50,WSW,255,2.0,7.0,78,0.00,,,0.00,weatherlink.com 1.10,2013-01-01 18:39:00,
2013-01-01 11:54:00,19.1,13.0,32.50,WNW,290,1.0,18.0,78,0.00,,,0.00,weatherlink.com 1.10,2013-01-01 18:54:00,
2013-01-01 12:09:00,19.6,14.0,32.50,West,279,10.0,10.0,77,0.00,,,0.00,weatherlink.com 1.10,2013-01-01 19:09:00,
2013-01-01 12:24:00,20.2,14.0,32.50,NW,323,7.0,13.0,76,0.00,,,0.00,weatherlink.com 1.10,2013-01-01 19:24:00,
2013-01-01 12:39:00,20.2,14.0,32.50,NW,319,12.0,16.0,76,0.00,,,0.00,weatherlink.com 1.10,2013-01-01 19:39:00,
2013-01-01 12:54:00,20.1,13.0,32.50,NNW,346,10.0,18.0,75,0.00,,,0.00,weatherlink.com 1.10,2013-01-01 19:54:00,
2013-01-01 13:09:00,19.7,14.0,32.50,WNW,300,10.0,20.0,77,0.00,,,0.00,weatherlink.com 1.10,2013-01-01 20:09:00,
2013-01-01 13:24:00,19.6,14.0,32.50,NW,315,20.0,20.0,77,0.00,,,0.00,weatherlink.com 1.10,2013-01-01 20:24:00,
2013-01-01 13:40:00,19.6,13.0,32.50,NW,323,19.0,25.0,75,0.00,,,0.00,weatherlink.com 1.10,2013-01-01 20:40:00,
2013-01-01 13:54:00,20.0,13.0,32.50,NW,324,18.0,25.0,75,0.00,,,0.00,weatherlink.com 1.10,2013-01-01 20:54:00,
2013-01-01 14:09:00,20.1,13.0,32.50,NW,319,18.0,23.0,73,0.00,,,0.00,weatherlink.com 1.10,2013-01-01 21:09:00,
2013-01-01 14:24:00,20.1,13.0,32.50,NNW,336,15.0,23.0,74,0.00,,,0.00,weatherlink.com 1.10,2013-01-01 21:24:00,
2013-01-01 14:39:00,20.3,13.0,32.50,WNW,298,7.0,19.0,73,0.00,,,0.00,weatherlink.com 1.10,2013-01-01 21:39:00,
2013-01-01 14:55:00,20.6,13.0,32.50,NNW,338,9.0,18.0,72,0.00,,,0.00,weatherlink.com 1.10,2013-01-01 21:55:00,
2013-01-01 15:10:00,20.1,13.0,32.50,NW,323,6.0,13.0,74,0.00,,,0.00,weatherlink.com 1.10,2013-01-01 22:10:00,
2013-01-01 15:25:00,19.3,13.0,32.50,NW,318,12.0,13.0,76,0.00,,,0.00,weatherlink.com 1.10,2013-01-01 22:25:00,
2013-01-01 15:40:00,19.6,13.0,32.50,WNW,294,8.0,17.0,75,0.00,,,0.00,weatherlink.com 1.10,2013-01-01 22:40:00,
2013-01-01 15:55:00,20.0,13.0,32.50,NE,36,9.0,17.0,75,0.00,,,0.00,weatherlink.com 1.10,2013-01-01 22:55:00,
2013-01-01 16:10:00,20.1,13.0,32.50,WNW,292,7.0,14.0,74,0.00,,,0.00,weatherlink.com 1.10,2013-01-01 23:10:00,
2013-01-01 16:25:00,19.1,13.0,32.50,NNW,337,14.0,17.0,76,0.00,,,0.00,weatherlink.com 1.10,2013-01-01 23:25:00,
2013-01-01 16:40:00,18.7,13.0,32.50,NNW,334,9.0,19.0,77,0.00,,,0.00,weatherlink.com 1.10,2013-01-01 23:40:00,
2013-01-01 16:55:00,18.4,13.0,32.50,NW,308,7.0,16.0,78,0.00,,,0.00,weatherlink.com 1.10,2013-01-01 23:55:00,
2013-01-01 17:10:00,18.1,12.0,32.50,WNW,295,14.0,18.0,78,0.00,,,0.00,weatherlink.com 1.10,2013-01-02 00:10:00,
2013-01-01 17:25:00,18.0,12.0,32.50,WNW,293,15.0,22.0,78,0.00,,,0.00,weatherlink.com 1.10,2013-01-02 00:25:00,
2013-01-01 17:40:00,17.9,12.0,32.50,NW,321,18.0,24.0,79,0.00,,,0.00,weatherlink.com 1.10,2013-01-02 00:40:00,
2013-01-01 17:55:00,17.9,12.0,32.50,NW,309,11.0,21.0,79,0.00,,,0.00,weatherlink.com 1.10,2013-01-02 00:55:00,
2013-01-01 18:10:00,17.9,12.0,32.50,NNW,331,16.0,20.0,79,0.00,,,0.00,weatherlink.com 1.10,2013-01-02 01:10:00,
2013-01-01 18:25:00,17.8,12.0,32.50,NNW,327,14.0,20.0,79,0.00,,,0.00,weatherlink.com 1.10,2013-01-02 01:25:00,
2013-01-01 18:40:00,17.7,12.0,32.50,WNW,298,10.0,17.0,79,0.00,,,0.00,weatherlink.com 1.10,2013-01-02 01:40:00,
2013-01-01 18:55:00,17.6,12.0,32.50,NW,311,9.0,15.0,80,0.00,,,0.00,weatherlink.com 1.10,2013-01-02 01:55:00,
2013-01-01 19:10:00,17.5,12.0,32.50,NW,320,12.0,15.0,80,0.00,,,0.00,weatherlink.com 1.10,2013-01-02 02:10:00,
2013-01-01 19:25:00,17.2,12.0,32.50,NW,323,11.0,14.0,81,0.00,,,0.00,weatherlink.com 1.10,2013-01-02 02:25:00,
2013-01-01 19:40:00,17.1,12.0,32.50,NW,306,12.0,14.0,81,0.00,,,0.00,weatherlink.com 1.10,2013-01-02 02:40:00,
2013-01-01 19:55:00,16.9,12.0,32.50,NNW,338,10.0,12.0,80,0.00,,,0.00,weatherlink.com 1.10,2013-01-02 02:55:00,
2013-01-01 20:10:00,16.8,12.0,32.50,WNW,294,12.0,13.0,80,0.00,,,0.00,weatherlink.com 1.10,2013-01-02 03:10:00,
2013-01-01 20:25:00,16.6,11.0,32.50,North,351,10.0,13.0,80,0.00,,,0.00,weatherlink.com 1.10,2013-01-02 03:25:00,
2013-01-01 20:40:00,16.4,12.0,32.50,NNW,342,12.0,14.0,81,0.00,,,0.00,weatherlink.com 1.10,2013-01-02 03:40:00,
2013-01-01 20:55:00,16.5,12.0,32.50,NNW,340,7.0,14.0,81,0.00,,,0.00,weatherlink.com 1.10,2013-01-02 03:55:00,
2013-01-01 21:10:00,16.4,12.0,32.50,NNW,329,11.0,14.0,81,0.00,,,0.00,weatherlink.com 1.10,2013-01-02 04:10:00,
2013-01-01 21:25:00,16.4,11.0,32.50,NNW,336,12.0,14.0,80,0.00,,,0.00,weatherlink.com 1.10,2013-01-02 04:25:00,
2013-01-01 21:40:00,16.4,11.0,32.50,North,355,9.0,13.0,80,0.00,,,0.00,weatherlink.com 1.10,2013-01-02 04:40:00,
2013-01-01 21:55:00,16.4,11.0,32.50,WNW,299,9.0,11.0,80,0.00,,,0.00,weatherlink.com 1.10,2013-01-02 04:55:00,
2013-01-01 22:10:00,16.4,11.0,32.50,NNW,342,9.0,13.0,80,0.00,,,0.00,weatherlink.com 1.10,2013-01-02 05:10:00,
2013-01-01 22:25:00,16.6,11.0,32.50,NNW,343,8.0,11.0,79,0.00,,,0.00,weatherlink.com 1.10,2013-01-02 05:25:00,
2013-01-01 22:40:00,16.6,11.0,32.50,WNW,300,4.0,9.0,80,0.00,,,0.00,weatherlink.com 1.10,2013-01-02 05:40:00,
2013-01-01 22:55:00,16.2,11.0,32.50,NNW,333,5.0,7.0,81,0.00,,,0.00,weatherlink.com 1.10,2013-01-02 05:55:00,
2013-01-01 23:10:00,16.0,11.0,32.50,NNW,340,7.0,9.0,81,0.00,,,0.00,weatherlink.com 1.10,2013-01-02 06:10:00,
2013-01-01 23:25:00,16.1,11.0,32.50,NW,313,5.0,8.0,81,0.00,,,0.00,weatherlink.com 1.10,2013-01-02 06:25:00,
2013-01-01 23:40:00,16.3,11.0,32.50,WNW,299,4.0,8.0,81,0.00,,,0.00,weatherlink.com 1.10,2013-01-02 06:40:00,
2013-01-01 23:55:00,16.4,12.0,32.50,NW,315,5.0,5.0,81,0.00,,,0.00,weatherlink.com 1.10,2013-01-02 06:55:00,